KACV - Arcata/Eureka, California, USA
Updated: Tue, 28-Mar-2017 5:53pm PDT
Few Clouds
Few Clouds
 Wind from NW
Wind: NW 5 mph , 7 km/h
Temperature: 54°F , 12°C
Dew Point: 48°F , 9°C
Humidity: 82%
Barometer: 30.30 inHg , 1026.1 hPa
Clouds: Few Clouds
Visibility: 7 miles , 11 km
Cloud details: Few Clouds 11000 ft
2017/03/29 00:53 KACV 290053Z AUTO 32004KT 7SM FEW110 12/09 A3030 RMK AO2 SLP268 T01170089

Metar display script from Saratoga-Weather.org